createdAt,value
2022-12-28T00:08:02.233Z,89.6
2022-12-28T00:20:02.611Z,89.5
2022-12-28T00:32:02.170Z,89.9
2022-12-28T00:44:02.123Z,89.7
2022-12-28T00:56:02.127Z,89.5
2022-12-28T01:08:02.108Z,89.0
2022-12-28T01:20:02.226Z,88.7
2022-12-28T01:32:02.128Z,88.8
2022-12-28T01:44:02.222Z,88.9
2022-12-28T01:56:02.228Z,88.8
2022-12-28T02:08:02.110Z,88.6
2022-12-28T02:20:02.217Z,88.5
2022-12-28T02:32:02.209Z,88.6
2022-12-28T02:44:02.210Z,88.4
2022-12-28T02:56:02.113Z,87.8
2022-12-28T03:08:02.261Z,87.5
2022-12-28T03:20:02.105Z,87.8
2022-12-28T03:32:02.195Z,88.1
2022-12-28T03:44:02.105Z,88.5
2022-12-28T03:56:02.112Z,88.8
2022-12-28T04:08:02.114Z,89.0
2022-12-28T04:20:02.228Z,89.9
2022-12-28T04:32:02.151Z,89.9
2022-12-28T04:44:02.209Z,90.5
2022-12-28T04:56:02.238Z,90.2
2022-12-28T05:08:02.117Z,89.7
2022-12-28T05:20:02.204Z,90.2
2022-12-28T05:32:02.215Z,90.3
2022-12-28T05:44:02.216Z,89.7
2022-12-28T05:56:02.105Z,89.1
2022-12-28T06:08:02.223Z,88.8
2022-12-28T06:20:02.227Z,88.3
2022-12-28T06:32:02.285Z,88.1
2022-12-28T06:44:02.218Z,88.2
2022-12-28T06:56:02.210Z,87.5
2022-12-28T07:08:05.203Z,87.1
2022-12-28T07:20:02.203Z,87.0
2022-12-28T07:32:02.224Z,86.9
2022-12-28T07:44:02.126Z,87.0
2022-12-28T07:56:02.107Z,86.5
2022-12-28T08:08:03.900Z,86.4
2022-12-28T08:20:02.233Z,86.1
2022-12-28T08:32:02.108Z,85.5
2022-12-28T08:44:02.218Z,84.9
2022-12-28T08:56:06.411Z,84.4
2022-12-28T09:08:02.137Z,84.3
2022-12-28T09:20:02.097Z,83.8
2022-12-28T09:32:02.230Z,83.0
2022-12-28T09:44:02.219Z,82.8
2022-12-28T09:56:02.132Z,83.2
2022-12-28T10:08:02.214Z,83.4
2022-12-28T10:20:02.117Z,82.8
2022-12-28T10:32:02.154Z,82.7
2022-12-28T10:44:37.554Z,82.0
2022-12-28T10:56:02.133Z,80.7
2022-12-28T11:08:02.110Z,79.6
2022-12-28T11:20:02.189Z,79.1
2022-12-28T11:32:02.184Z,79.0
2022-12-28T11:44:02.103Z,78.9
2022-12-28T11:56:02.162Z,78.9
2022-12-28T12:08:02.116Z,79.6
2022-12-28T12:20:02.139Z,80.0
2022-12-28T12:32:02.187Z,79.6
2022-12-28T12:44:02.194Z,79.4
2022-12-28T12:56:02.156Z,79.9
2022-12-28T13:08:02.174Z,79.5
2022-12-28T13:20:02.103Z,78.9
2022-12-28T13:32:02.098Z,78.1
2022-12-28T13:44:02.100Z,77.5
2022-12-28T13:56:02.195Z,77.4
2022-12-28T14:08:02.107Z,78.0
2022-12-28T14:20:02.164Z,78.4
2022-12-28T14:32:02.114Z,79.7
2022-12-28T14:44:02.235Z,80.5
2022-12-28T14:56:02.112Z,81.4
2022-12-28T15:08:02.215Z,80.5
2022-12-28T15:20:02.232Z,79.6
2022-12-28T15:32:02.108Z,78.3
2022-12-28T15:44:02.149Z,78.0
2022-12-28T15:56:02.242Z,77.6
2022-12-28T16:08:02.108Z,77.0
2022-12-28T16:20:02.301Z,76.6
2022-12-28T16:32:02.272Z,76.7
2022-12-28T16:44:02.110Z,76.7
2022-12-28T16:56:02.202Z,76.1
2022-12-28T17:08:03.409Z,76.9
2022-12-28T17:20:02.203Z,76.6
2022-12-28T17:32:02.315Z,76.3
2022-12-28T17:44:02.199Z,76.0
2022-12-28T17:56:02.149Z,76.0
2022-12-28T18:08:02.111Z,75.7
2022-12-28T18:20:02.112Z,75.6
2022-12-28T18:32:02.216Z,76.3
2022-12-28T18:44:02.209Z,77.7
2022-12-28T18:56:02.108Z,78.2
2022-12-28T19:08:02.580Z,77.6
2022-12-28T19:20:02.142Z,77.6
2022-12-28T19:32:02.096Z,77.1
2022-12-28T19:44:02.193Z,77.4
2022-12-28T19:56:02.222Z,76.9
2022-12-28T20:08:02.107Z,77.4
2022-12-28T20:20:02.122Z,77.7
2022-12-28T20:32:02.321Z,76.7
2022-12-28T20:44:02.216Z,76.1
2022-12-28T20:56:02.218Z,75.7
2022-12-28T21:08:02.117Z,75.6
2022-12-28T21:20:02.250Z,75.3
2022-12-28T21:32:02.280Z,75.8
2022-12-28T21:44:02.219Z,76.8
2022-12-28T21:56:02.111Z,77.9
2022-12-28T22:08:02.217Z,78.5
2022-12-28T22:20:02.227Z,78.7
2022-12-28T22:32:02.278Z,78.9
2022-12-28T22:44:02.217Z,79.6
2022-12-28T22:56:02.100Z,79.5
2022-12-28T23:08:02.121Z,79.8
2022-12-28T23:20:02.169Z,79.8
2022-12-28T23:32:02.107Z,80.0
2022-12-28T23:44:02.111Z,81.0
2022-12-28T23:56:02.185Z,82.5
